createdAt,value
2022-12-18T00:01:59.791Z,102736.59
2022-12-18T00:04:29.323Z,102738.34
2022-12-18T00:06:57.293Z,102744.16
2022-12-18T00:09:25.507Z,102742.91
2022-12-18T00:14:43.818Z,102725.63
2022-12-18T00:17:11.654Z,102724.97
2022-12-18T00:19:39.519Z,102727.63
2022-12-18T00:22:08.101Z,102732.69
2022-12-18T00:24:35.995Z,102737.84
2022-12-18T00:27:05.214Z,102742.16
2022-12-18T00:29:33.259Z,102744.28
2022-12-18T00:32:01.243Z,102747.94
2022-12-18T00:34:29.172Z,102744.41
2022-12-18T00:36:56.985Z,102742.25
2022-12-18T00:39:24.852Z,102744.91
2022-12-18T00:42:10.205Z,102746.16
2022-12-18T00:44:39.522Z,102745.00
2022-12-18T00:47:08.286Z,102748.19
2022-12-18T00:49:36.129Z,102744.63
2022-12-18T00:52:03.968Z,102752.47
2022-12-18T00:54:32.210Z,102750.69
2022-12-18T00:57:00.159Z,102738.81
2022-12-18T00:59:28.054Z,102745.28
2022-12-18T01:01:57.457Z,102755.75
2022-12-18T01:04:25.426Z,102756.25
2022-12-18T01:06:53.611Z,102749.06
2022-12-18T01:09:24.928Z,102759.41
2022-12-18T01:11:53.981Z,102759.78
2022-12-18T01:14:21.859Z,102765.94
2022-12-18T01:16:49.757Z,102765.34
2022-12-18T01:19:19.044Z,102781.50
2022-12-18T01:21:48.319Z,102784.03
2022-12-18T01:24:16.144Z,102794.72
2022-12-18T01:26:43.999Z,102800.78
2022-12-18T01:29:11.848Z,102807.84
2022-12-18T01:31:39.818Z,102800.28
2022-12-18T01:34:07.897Z,102793.22
2022-12-18T01:36:39.880Z,102790.41
2022-12-18T01:39:10.381Z,102777.81
2022-12-18T01:41:52.259Z,102779.34
2022-12-18T01:44:55.985Z,102784.13
2022-12-18T01:47:26.363Z,102787.66
2022-12-18T01:49:55.020Z,102803.56
2022-12-18T01:52:24.594Z,102799.25
2022-12-18T01:54:53.167Z,102794.22
2022-12-18T01:57:21.170Z,102796.22
2022-12-18T01:59:52.697Z,102785.53
2022-12-18T02:02:21.669Z,102782.63
2022-12-18T02:04:49.908Z,102785.66
2022-12-18T02:07:25.426Z,102782.34
2022-12-18T02:10:00.867Z,102780.59
2022-12-18T02:12:34.656Z,102782.88
2022-12-18T02:19:41.478Z,102763.56
2022-12-18T02:22:19.900Z,102751.97
2022-12-18T02:24:59.023Z,102748.44
2022-12-18T02:27:28.817Z,102747.78
2022-12-18T02:29:58.824Z,102750.56
2022-12-18T02:32:30.874Z,102755.09
2022-12-18T02:35:00.523Z,102757.03
2022-12-18T02:37:30.376Z,102754.72
2022-12-18T02:39:59.261Z,102759.53
2022-12-18T02:42:29.972Z,102772.88
2022-12-18T02:44:58.245Z,102768.84
2022-12-18T02:47:31.665Z,102753.94
2022-12-18T02:50:04.785Z,102755.19
2022-12-18T02:52:38.850Z,102750.19
2022-12-18T02:55:16.847Z,102750.53
2022-12-18T02:57:52.679Z,102754.78
2022-12-18T03:00:28.171Z,102760.44
2022-12-18T03:03:00.320Z,102778.53
2022-12-18T03:05:32.609Z,102795.97
2022-12-18T03:08:04.572Z,102801.13
2022-12-18T03:10:39.616Z,102802.38
2022-12-18T03:13:11.853Z,102797.09
2022-12-18T03:15:41.979Z,102791.69
2022-12-18T03:18:14.512Z,102793.81
2022-12-18T03:20:43.891Z,102799.50
2022-12-18T03:23:15.990Z,102808.59
2022-12-18T03:25:48.357Z,102817.06
2022-12-18T03:28:22.373Z,102817.44
2022-12-18T03:30:59.198Z,102816.19
2022-12-18T03:33:29.877Z,102804.69
2022-12-18T03:35:59.120Z,102815.28
2022-12-18T03:38:27.047Z,102817.19
2022-12-18T03:41:02.079Z,102819.81
2022-12-18T03:43:46.826Z,102820.72
2022-12-18T03:46:20.374Z,102822.47
2022-12-18T03:48:51.289Z,102822.63
2022-12-18T03:51:24.721Z,102825.75
2022-12-18T03:53:56.570Z,102816.16
2022-12-18T03:56:32.180Z,102825.00
2022-12-18T03:59:03.502Z,102835.72
2022-12-18T04:01:35.213Z,102833.69
2022-12-18T04:04:04.903Z,102838.75
2022-12-18T04:06:37.263Z,102837.25
2022-12-18T04:09:06.264Z,102835.84
2022-12-18T04:11:38.390Z,102834.97
2022-12-18T04:14:11.842Z,102840.66
2022-12-18T04:16:42.581Z,102839.13
2022-12-18T04:19:13.873Z,102852.25
2022-12-18T04:21:44.395Z,102856.94
2022-12-18T04:24:13.970Z,102853.66
2022-12-18T04:26:48.754Z,102858.94
2022-12-18T04:29:20.802Z,102860.56
2022-12-18T04:31:49.097Z,102859.81
2022-12-18T04:34:17.901Z,102849.25
2022-12-18T04:36:51.186Z,102851.63
2022-12-18T04:39:19.764Z,102847.22
2022-12-18T04:41:49.870Z,102845.72
2022-12-18T04:44:17.949Z,102842.94
2022-12-18T04:46:47.218Z,102837.75
2022-12-18T04:49:15.514Z,102841.16
2022-12-18T04:51:43.381Z,102840.28
2022-12-18T04:54:11.248Z,102828.03
2022-12-18T04:56:39.139Z,102838.50
2022-12-18T04:59:07.000Z,102828.41
2022-12-18T05:01:36.038Z,102834.09
2022-12-18T05:04:06.377Z,102847.59
2022-12-18T05:06:34.334Z,102848.59
2022-12-18T05:09:02.173Z,102858.31
2022-12-18T05:11:30.172Z,102872.81
2022-12-18T05:13:57.972Z,102875.47
2022-12-18T05:16:26.045Z,102876.06
2022-12-18T05:18:54.029Z,102870.28
2022-12-18T05:21:23.288Z,102874.56
2022-12-18T05:23:51.217Z,102881.34
2022-12-18T05:26:20.035Z,102885.03
2022-12-18T05:28:48.096Z,102881.78
2022-12-18T05:31:16.460Z,102879.88
2022-12-18T05:33:44.623Z,102881.13
2022-12-18T05:36:12.733Z,102885.94
2022-12-18T05:38:42.307Z,102884.69
2022-12-18T05:41:10.741Z,102882.66
2022-12-18T05:43:40.106Z,102885.91
2022-12-18T05:46:08.991Z,102886.00
2022-12-18T05:48:37.033Z,102890.28
2022-12-18T05:51:07.388Z,102889.63
2022-12-18T05:53:35.516Z,102874.75
2022-12-18T05:56:06.304Z,102875.09
2022-12-18T05:58:34.945Z,102884.16
2022-12-18T06:01:09.406Z,102895.94
2022-12-18T06:03:37.401Z,102900.88
2022-12-18T06:06:05.617Z,102899.69
2022-12-18T06:08:33.506Z,102898.16
2022-12-18T06:11:01.383Z,102899.44
2022-12-18T06:13:30.753Z,102904.63
2022-12-18T06:15:58.811Z,102903.59
2022-12-18T06:18:26.716Z,102900.38
2022-12-18T06:20:58.189Z,102912.63
2022-12-18T06:23:26.321Z,102911.69
2022-12-18T06:25:54.494Z,102910.22
2022-12-18T06:28:22.627Z,102916.81
2022-12-18T06:30:52.084Z,102930.06
2022-12-18T06:33:20.019Z,102934.66
2022-12-18T06:35:47.874Z,102941.28
2022-12-18T06:38:15.683Z,102947.66
2022-12-18T06:40:43.522Z,102933.91
2022-12-18T06:43:11.493Z,102935.47
2022-12-18T06:45:39.486Z,102935.66
2022-12-18T06:48:08.901Z,102935.66
2022-12-18T06:50:36.857Z,102929.81
2022-12-18T06:53:04.717Z,102926.56
2022-12-18T06:55:33.415Z,102925.41
2022-12-18T06:58:01.315Z,102930.34
2022-12-18T07:00:29.153Z,102930.72
2022-12-18T07:02:57.020Z,102929.28
2022-12-18T07:05:26.329Z,102935.59
2022-12-18T07:07:54.303Z,102927.44
2022-12-18T07:10:22.147Z,102928.59
2022-12-18T07:12:49.986Z,102925.19
2022-12-18T07:15:17.882Z,102920.28
2022-12-18T07:17:45.752Z,102928.25
2022-12-18T07:20:13.738Z,102931.66
2022-12-18T07:22:43.056Z,102935.47
2022-12-18T07:25:11.415Z,102939.22
2022-12-18T07:27:39.347Z,102945.72
2022-12-18T07:30:08.575Z,102942.13
2022-12-18T07:32:36.497Z,102944.25
2022-12-18T07:35:04.786Z,102942.22
2022-12-18T07:37:32.602Z,102945.72
2022-12-18T07:40:01.940Z,102945.88
2022-12-18T07:42:32.550Z,102956.09
2022-12-18T07:45:00.760Z,102951.31
2022-12-18T07:47:28.692Z,102955.81
2022-12-18T07:49:58.031Z,102962.38
2022-12-18T07:52:26.960Z,102965.91
2022-12-18T07:54:54.811Z,102980.31
2022-12-18T07:57:49.056Z,102981.41
2022-12-18T08:00:13.591Z,102982.25
2022-12-18T08:02:41.518Z,102981.91
2022-12-18T08:05:10.861Z,102979.03
2022-12-18T08:07:38.784Z,102977.53
2022-12-18T08:10:07.689Z,102982.06
2022-12-18T08:12:36.996Z,102979.91
2022-12-18T08:15:05.296Z,102989.25
2022-12-18T08:17:34.211Z,102987.47
2022-12-18T08:20:02.762Z,102984.25
2022-12-18T08:22:30.698Z,102992.94
2022-12-18T08:24:58.569Z,102995.84
2022-12-18T08:27:30.289Z,102998.78
2022-12-18T08:30:00.253Z,102991.63
2022-12-18T08:32:29.568Z,102990.56
2022-12-18T08:34:57.463Z,102990.47
2022-12-18T08:37:25.330Z,102993.63
2022-12-18T08:39:53.222Z,102993.41
2022-12-18T08:42:38.743Z,102991.34
2022-12-18T08:45:13.437Z,103004.41
2022-12-18T08:47:41.794Z,103006.72
2022-12-18T08:50:12.151Z,103006.84
2022-12-18T08:52:40.042Z,103000.19
2022-12-18T08:55:09.458Z,102993.53
2022-12-18T08:57:37.330Z,102992.38
2022-12-18T09:00:05.897Z,102995.44
2022-12-18T09:02:35.162Z,103002.50
2022-12-18T09:05:03.205Z,103002.38
2022-12-18T09:07:31.162Z,103009.97
2022-12-18T09:09:59.110Z,103016.16
2022-12-18T09:12:27.200Z,103011.47
2022-12-18T09:14:55.065Z,103015.66
2022-12-18T09:17:22.994Z,103016.53
2022-12-18T09:19:52.779Z,103016.81
2022-12-18T09:22:20.635Z,103017.19
2022-12-18T09:24:48.500Z,103010.34
2022-12-18T09:27:16.378Z,103013.22
2022-12-18T09:29:44.172Z,103012.63
2022-12-18T09:32:13.605Z,103008.16
2022-12-18T09:34:44.263Z,103004.00
2022-12-18T09:37:13.785Z,103015.13
2022-12-18T09:39:56.649Z,103018.53
2022-12-18T09:42:24.741Z,103012.19
2022-12-18T09:44:54.691Z,103005.25
2022-12-18T09:51:39.002Z,103009.16
2022-12-18T09:54:12.848Z,103003.81
2022-12-18T09:56:43.664Z,103004.22
2022-12-18T09:59:21.130Z,103005.31
2022-12-18T10:09:34.026Z,103001.69
2022-12-18T10:12:11.806Z,103003.50
2022-12-18T10:14:45.581Z,103002.41
2022-12-18T10:17:22.909Z,103003.47
2022-12-18T10:19:55.099Z,103002.19
2022-12-18T10:22:33.332Z,103002.75
2022-12-18T10:25:07.896Z,102991.97
2022-12-18T10:27:35.893Z,102995.56
2022-12-18T10:30:09.961Z,102999.22
2022-12-18T10:32:37.861Z,103008.13
2022-12-18T10:35:10.551Z,103010.34
2022-12-18T10:38:05.172Z,103012.25
2022-12-18T10:40:33.340Z,103020.06
2022-12-18T10:43:06.822Z,103009.59
2022-12-18T10:45:34.768Z,103012.72
2022-12-18T10:48:02.930Z,103010.00
2022-12-18T10:51:01.806Z,103012.75
2022-12-18T10:53:25.466Z,103008.56
2022-12-18T10:55:54.481Z,103013.81
2022-12-18T10:58:38.664Z,103018.13
2022-12-18T11:01:10.418Z,103008.22
2022-12-18T11:03:39.920Z,103013.44
2022-12-18T11:06:10.838Z,103014.63
2022-12-18T11:08:40.947Z,103011.81
2022-12-18T11:11:18.441Z,103008.09
2022-12-18T11:13:55.680Z,103005.91
2022-12-18T11:16:24.755Z,103013.31
2022-12-18T11:18:52.733Z,103013.28
2022-12-18T11:21:20.802Z,103016.16
2022-12-18T11:23:52.278Z,103015.94
2022-12-18T11:26:20.869Z,103012.53
2022-12-18T11:28:51.798Z,103016.75
2022-12-18T11:31:28.682Z,103016.19
2022-12-18T11:34:28.191Z,103027.97
2022-12-18T11:36:50.403Z,103029.78
2022-12-18T11:39:22.459Z,103022.69
2022-12-18T11:42:13.379Z,103032.28
2022-12-18T11:44:47.712Z,103018.16
2022-12-18T11:47:23.041Z,103015.84
2022-12-18T11:49:52.023Z,103008.44
2022-12-18T11:52:23.039Z,103015.25
2022-12-18T11:54:55.059Z,103015.34
2022-12-18T11:57:35.829Z,103001.44
2022-12-18T12:00:09.596Z,103001.44
2022-12-18T12:03:04.751Z,103010.03
2022-12-18T12:05:43.221Z,103006.25
2022-12-18T12:08:16.897Z,102996.31
2022-12-18T12:10:54.455Z,102991.06
2022-12-18T12:13:30.691Z,102998.75
2022-12-18T12:16:08.655Z,102986.19
2022-12-18T12:18:47.493Z,102986.75
2022-12-18T12:21:22.632Z,102987.75
2022-12-18T12:23:56.164Z,103000.06
2022-12-18T12:26:29.683Z,102995.59
2022-12-18T12:29:22.873Z,102991.19
2022-12-18T12:32:04.077Z,102995.81
2022-12-18T12:34:37.105Z,102991.38
2022-12-18T12:37:08.576Z,102992.38
2022-12-18T12:39:38.650Z,102997.47
2022-12-18T12:42:30.501Z,102999.13
2022-12-18T12:44:59.284Z,103001.31
2022-12-18T12:47:29.299Z,102995.06
2022-12-18T12:49:58.794Z,102998.16
2022-12-18T12:52:30.916Z,103002.75
2022-12-18T12:54:58.908Z,102999.34
2022-12-18T12:57:34.384Z,103003.53
2022-12-18T13:00:05.342Z,103001.22
2022-12-18T13:02:37.986Z,103007.16
2022-12-18T13:05:13.771Z,103003.53
2022-12-18T13:07:44.328Z,102988.44
2022-12-18T13:10:17.897Z,102982.38
2022-12-18T13:12:58.263Z,102976.97
2022-12-18T13:15:30.319Z,102976.53
2022-12-18T13:18:19.620Z,102978.69
2022-12-18T13:20:53.657Z,102971.31
2022-12-18T13:23:36.006Z,102963.31
2022-12-18T13:26:37.236Z,102963.25
2022-12-18T13:29:07.288Z,102960.41
2022-12-18T13:32:02.812Z,102960.28
2022-12-18T13:37:42.785Z,102941.78
2022-12-18T13:41:00.236Z,102942.09
2022-12-18T13:43:34.545Z,102937.47
2022-12-18T13:46:21.253Z,102922.69
2022-12-18T13:48:59.327Z,102897.56
2022-12-18T13:51:27.948Z,102899.66
2022-12-18T13:53:57.612Z,102910.13
2022-12-18T13:56:27.509Z,102902.31
2022-12-18T13:59:24.549Z,102915.19
2022-12-18T14:01:57.211Z,102913.66
2022-12-18T14:04:28.094Z,102919.50
2022-12-18T14:06:59.570Z,102925.78
2022-12-18T14:09:30.161Z,102925.78
2022-12-18T14:12:19.344Z,102926.53
2022-12-18T14:14:49.137Z,102926.09
2022-12-18T14:17:21.102Z,102911.88
2022-12-18T14:19:51.406Z,102911.09
2022-12-18T14:22:21.715Z,102918.06
2022-12-18T14:24:50.227Z,102912.84
2022-12-18T14:27:24.422Z,102914.38
2022-12-18T14:29:52.528Z,102902.06
2022-12-18T14:32:23.445Z,102898.28
2022-12-18T14:34:52.935Z,102894.84
2022-12-18T14:37:24.495Z,102879.09
2022-12-18T14:39:57.602Z,102879.97
2022-12-18T14:42:28.901Z,102882.28
2022-12-18T14:45:40.945Z,102869.38
2022-12-18T14:48:19.015Z,102867.41
2022-12-18T14:50:59.944Z,102868.28
2022-12-18T14:53:35.223Z,102870.81
2022-12-18T14:56:03.886Z,102864.97
2022-12-18T14:58:31.834Z,102867.50
2022-12-18T15:00:59.901Z,102877.41
2022-12-18T15:03:29.285Z,102881.03
2022-12-18T15:05:57.487Z,102892.59
2022-12-18T15:08:32.707Z,102883.78
2022-12-18T15:11:00.888Z,102889.72
2022-12-18T15:13:29.459Z,102884.88
2022-12-18T15:15:58.613Z,102888.00
2022-12-18T15:18:34.182Z,102877.75
2022-12-18T15:21:10.192Z,102868.91
2022-12-18T15:23:40.684Z,102868.91
2022-12-18T15:26:11.370Z,102866.69
2022-12-18T15:28:42.196Z,102857.09
2022-12-18T15:31:25.262Z,102866.47
2022-12-18T15:34:12.610Z,102870.59
2022-12-18T15:36:40.505Z,102872.44
2022-12-18T15:39:08.361Z,102869.09
2022-12-18T15:41:37.755Z,102872.50
2022-12-18T15:44:15.930Z,102882.84
2022-12-18T15:46:43.880Z,102885.59
2022-12-18T15:49:13.171Z,102882.81
2022-12-18T15:51:41.720Z,102880.06
2022-12-18T15:54:14.513Z,102876.72
2022-12-18T15:57:08.246Z,102875.06
2022-12-18T15:59:36.119Z,102875.59
2022-12-18T16:02:04.088Z,102866.47
2022-12-18T16:04:34.270Z,102871.16
2022-12-18T16:07:22.595Z,102880.94
2022-12-18T16:09:50.317Z,102877.63
2022-12-18T16:12:19.876Z,102868.75
2022-12-18T16:14:48.107Z,102867.13
2022-12-18T16:17:16.263Z,102868.03
2022-12-18T16:19:46.032Z,102876.44
2022-12-18T16:22:22.100Z,102868.03
2022-12-18T16:24:50.609Z,102863.97
2022-12-18T16:27:18.725Z,102860.28
2022-12-18T16:29:46.689Z,102855.38
2022-12-18T16:32:16.436Z,102851.88
2022-12-18T16:34:46.008Z,102858.97
2022-12-18T16:37:15.247Z,102855.28
2022-12-18T16:39:43.493Z,102861.66
2022-12-18T16:42:15.433Z,102860.91
2022-12-18T16:44:43.663Z,102856.00
2022-12-18T16:47:11.793Z,102850.38
2022-12-18T16:49:45.838Z,102844.16
2022-12-18T16:52:14.431Z,102832.50
2022-12-18T16:54:42.448Z,102834.31
2022-12-18T16:57:11.241Z,102830.56
2022-12-18T16:59:39.130Z,102833.63
2022-12-18T17:02:07.373Z,102828.56
2022-12-18T17:04:36.045Z,102828.28
2022-12-18T17:07:05.359Z,102825.75
2022-12-18T17:09:33.198Z,102836.75
2022-12-18T17:12:04.265Z,102828.91
2022-12-18T17:14:33.451Z,102830.97
2022-12-18T17:19:49.579Z,102822.81
2022-12-18T17:22:18.881Z,102823.56
2022-12-18T17:24:47.691Z,102812.72
2022-12-18T17:27:15.607Z,102805.38
2022-12-18T17:29:47.719Z,102795.81
2022-12-18T17:32:16.123Z,102799.22
2022-12-18T17:34:43.992Z,102802.91
2022-12-18T17:37:11.865Z,102810.50
2022-12-18T17:39:42.053Z,102815.78
2022-12-18T17:42:14.594Z,102805.03
2022-12-18T17:44:43.732Z,102806.69
2022-12-18T17:47:12.861Z,102800.94
2022-12-18T17:49:40.733Z,102791.09
2022-12-18T17:52:08.621Z,102788.09
2022-12-18T17:54:39.665Z,102792.75
2022-12-18T17:57:09.158Z,102794.25
2022-12-18T17:59:37.156Z,102783.63
2022-12-18T18:02:05.275Z,102779.53
2022-12-18T18:04:33.223Z,102780.84
2022-12-18T18:07:01.113Z,102776.47
2022-12-18T18:09:29.091Z,102784.81
2022-12-18T18:12:14.759Z,102770.19
2022-12-18T18:14:44.111Z,102775.84
2022-12-18T18:17:12.155Z,102774.28
2022-12-18T18:19:39.993Z,102767.44
2022-12-18T18:22:08.464Z,102757.19
2022-12-18T18:24:36.586Z,102764.16
2022-12-18T18:27:04.644Z,102756.72
2022-12-18T18:29:32.612Z,102747.44
2022-12-18T18:32:02.153Z,102745.91
2022-12-18T18:34:31.888Z,102741.06
2022-12-18T18:37:01.406Z,102738.75
2022-12-18T18:39:29.451Z,102747.25
2022-12-18T18:41:57.478Z,102745.91
2022-12-18T18:44:26.084Z,102751.56
2022-12-18T18:46:54.956Z,102749.69
2022-12-18T18:49:27.107Z,102751.00
2022-12-18T18:51:55.487Z,102748.69
2022-12-18T18:54:23.361Z,102743.28
2022-12-18T18:59:39.401Z,102721.41
2022-12-18T19:02:07.795Z,102718.34
2022-12-18T19:04:38.473Z,102711.97
2022-12-18T19:07:13.513Z,102710.22
2022-12-18T19:09:44.886Z,102697.88
2022-12-18T19:12:30.041Z,102693.81
2022-12-18T19:14:57.906Z,102686.75
2022-12-18T19:17:30.622Z,102694.59
2022-12-18T19:20:00.938Z,102693.47
2022-12-18T19:22:28.782Z,102679.41
2022-12-18T19:24:56.711Z,102684.69
2022-12-18T19:27:25.005Z,102686.66
2022-12-18T19:29:52.840Z,102679.50
2022-12-18T19:32:20.839Z,102680.03
2022-12-18T19:34:48.968Z,102669.28
2022-12-18T19:37:19.499Z,102677.41
2022-12-18T19:39:47.559Z,102674.81
2022-12-18T19:42:17.895Z,102672.78
2022-12-18T19:44:49.514Z,102689.53
2022-12-18T19:47:17.772Z,102689.75
2022-12-18T19:49:45.745Z,102676.66
2022-12-18T19:52:16.061Z,102697.22
2022-12-18T19:54:45.453Z,102691.25
2022-12-18T19:57:13.592Z,102699.22
2022-12-18T19:59:41.798Z,102679.19
2022-12-18T20:02:13.600Z,102688.97
2022-12-18T20:04:41.911Z,102684.69
2022-12-18T20:07:10.079Z,102672.28
2022-12-18T20:09:38.383Z,102670.72
2022-12-18T20:12:08.358Z,102678.31
2022-12-18T20:14:36.677Z,102678.22
2022-12-18T20:17:05.661Z,102682.41
2022-12-18T20:19:34.429Z,102677.22
2022-12-18T20:22:03.011Z,102665.19
2022-12-18T20:24:31.197Z,102668.63
2022-12-18T20:26:59.896Z,102645.41
2022-12-18T20:29:29.473Z,102655.31
2022-12-18T20:31:57.682Z,102651.09
2022-12-18T20:34:25.824Z,102651.03
2022-12-18T20:36:56.763Z,102650.25
2022-12-18T20:39:26.453Z,102638.91
2022-12-18T20:41:56.676Z,102633.06
2022-12-18T20:44:24.757Z,102625.28
2022-12-18T20:46:56.335Z,102628.00
2022-12-18T20:49:25.567Z,102614.91
2022-12-18T20:51:54.803Z,102614.56
2022-12-18T20:54:23.803Z,102614.34
2022-12-18T20:56:52.500Z,102603.31
2022-12-18T20:59:20.604Z,102621.03
2022-12-18T21:01:49.509Z,102601.59
2022-12-18T21:04:19.617Z,102586.84
2022-12-18T21:06:52.395Z,102588.03
2022-12-18T21:09:23.711Z,102593.31
2022-12-18T21:12:09.665Z,102583.28
2022-12-18T21:14:41.944Z,102581.06
2022-12-18T21:17:09.851Z,102562.69
2022-12-18T21:19:39.186Z,102568.50
2022-12-18T21:22:07.241Z,102563.31
2022-12-18T21:24:35.092Z,102562.75
2022-12-18T21:27:03.618Z,102551.19
2022-12-18T21:29:31.740Z,102544.44
2022-12-18T21:31:59.861Z,102550.00
2022-12-18T21:34:29.452Z,102540.25
2022-12-18T21:37:00.299Z,102529.78
2022-12-18T21:39:29.290Z,102533.38
2022-12-18T21:42:14.907Z,102536.25
2022-12-18T21:44:43.252Z,102522.19
2022-12-18T21:47:22.134Z,102523.25
2022-12-18T21:49:51.842Z,102518.19
2022-12-18T21:52:31.481Z,102510.03
2022-12-18T21:55:07.996Z,102503.41
2022-12-18T21:57:36.822Z,102495.91
2022-12-18T22:00:06.116Z,102498.56
2022-12-18T22:02:40.057Z,102485.00
2022-12-18T22:05:08.977Z,102483.34
2022-12-18T22:07:38.184Z,102484.78
2022-12-18T22:10:06.719Z,102484.06
2022-12-18T22:12:43.719Z,102481.78
2022-12-18T22:15:21.061Z,102486.47
2022-12-18T22:17:51.171Z,102468.13
2022-12-18T22:20:23.054Z,102453.63
2022-12-18T22:22:53.013Z,102449.44
2022-12-18T22:25:20.834Z,102445.16
2022-12-18T22:28:08.664Z,102440.75
2022-12-18T22:30:35.696Z,102455.75
2022-12-18T22:33:03.841Z,102453.63
2022-12-18T22:35:31.905Z,102445.56
2022-12-18T22:38:01.472Z,102441.63
2022-12-18T22:40:30.076Z,102434.25
2022-12-18T22:42:59.368Z,102425.28
2022-12-18T22:45:27.846Z,102414.28
2022-12-18T22:47:55.890Z,102405.22
2022-12-18T22:50:23.831Z,102395.44
2022-12-18T22:52:51.652Z,102379.16
2022-12-18T22:55:20.897Z,102393.31
2022-12-18T22:57:53.345Z,102378.97
2022-12-18T23:00:24.104Z,102370.97
2022-12-18T23:02:59.290Z,102374.06
2022-12-18T23:05:29.090Z,102363.09
2022-12-18T23:07:57.002Z,102351.56
2022-12-18T23:10:26.325Z,102344.03
2022-12-18T23:12:54.277Z,102339.47
2022-12-18T23:15:24.216Z,102319.97
2022-12-18T23:17:58.500Z,102333.00
2022-12-18T23:20:26.586Z,102335.28
2022-12-18T23:22:54.451Z,102328.06
2022-12-18T23:25:22.317Z,102325.63
2022-12-18T23:27:51.718Z,102317.91
2022-12-18T23:30:19.709Z,102306.59
2022-12-18T23:32:47.911Z,102312.63
2022-12-18T23:35:16.165Z,102292.25
2022-12-18T23:38:00.563Z,102297.22
2022-12-18T23:40:29.856Z,102274.78
2022-12-18T23:42:59.915Z,102272.69
2022-12-18T23:45:27.805Z,102267.63
2022-12-18T23:47:55.708Z,102266.44
2022-12-18T23:50:29.014Z,102270.63
2022-12-18T23:53:04.737Z,102262.34
2022-12-18T23:55:34.887Z,102274.94
2022-12-18T23:58:04.162Z,102273.38
